Data for 06/21/2015

Time Sea-Level Adjusted Pressure Absolute Pressure Temperature Relative Humidity Dew Point   
(mb) (inHg) (mb) (inHg) (C) (F) (%) (C) (F)
00:05 1017 30.03 846 24.98 13.5 56.2 47 2.5 36.4
00:10 1017 30.03 846 24.98 13.6 56.4 47 2.5 36.5
00:15 1017 30.03 846 24.98 13.7 56.6 48 2.8 37
00:20 1017 30.03 846 24.98 13.5 56.3 49 3 37.4
00:25 1017 30.03 846 24.98 13.3 56 47 2.4 36.3
00:30 1017 30.03 846 24.98 13.1 55.6 49 2.8 37
00:35 1017 30.03 846 24.98 12.8 55 50 2.7 36.8
00:40 1017 30.03 846 24.98 12.8 55 50 2.7 36.9
00:45 1017 30.03 846 24.98 12.8 55 50 2.6 36.8
00:50 1017 30.03 846 24.98 12.8 55 50 2.6 36.6
00:55 1017 30.03 846 24.98 12.6 54.6 52 2.9 37.3
01:00 1017 30.03 846 24.98 12.3 54.1 52 2.7 36.8
01:05 1017 30.03 846 24.98 12.4 54.3 51 2.7 36.8
01:10 1017 30.03 846 24.98 12.5 54.4 51 2.8 37
01:15 1017 30.03 846 24.98 12.6 54.6 52 3 37.4
01:20 1017 30.03 846 24.98 12.4 54.3 53 3.1 37.6
01:25 1017 30.03 846 24.98 12.1 53.7 52 2.7 36.8
01:30 1017 30.03 846 24.98 11.9 53.4 52 2.5 36.5
01:35 1017 30.03 846 24.98 11.8 53.3 52 2.4 36.4
01:40 1017 30.03 846 24.98 11.7 53 54 2.7 36.8
01:45 1017 30.03 846 24.98 11.6 52.8 53 2.4 36.4
01:50 1017 30.03 846 24.98 11.7 53.1 52 2.3 36.1
01:55 1017 30.03 846 24.98 11.6 52.9 53 2.4 36.3
02:00 1017 30.03 846 24.98 11.4 52.6 53 2.1 35.9
02:05 1017 30.03 846 24.98 11.5 52.7 51 1.9 35.4
02:10 1017 30.03 846 24.98 11.8 53.2 50 1.9 35.4
02:15 1017 30.03 846 24.98 11.7 53.1 53 2.5 36.6
02:20 1017 30.03 846 24.98 11.5 52.6 55 2.7 36.9
02:25 1017 30.03 846 24.98 11.5 52.7 55 2.7 36.9
02:30 1017 30.03 846 24.98 11 51.8 58 3.2 37.8
02:35 1017 30.03 846 24.98 10.6 51.1 56 2.2 36
02:40 1016 30 846 24.98 11.3 52.3 52 1.8 35.3
02:45 1016 30 846 24.98 11.4 52.5 54 2.4 36.3
02:50 1016 30 846 24.98 11.1 52 55 2.4 36.3
02:55 1016 30 846 24.98 11 51.7 55 2.2 36
03:00 1016 30 846 24.98 11 51.8 55 2.3 36.2
03:05 1016 30 845 24.95 10.9 51.6 55 2.2 36
03:10 1016 30 845 24.95 11 51.8 54 2 35.7
03:15 1016 30 845 24.95 11.1 52 54 2.1 35.8
03:20 1016 30 845 24.95 11 51.8 54 2.2 36
03:25 1016 30 845 24.95 10.9 51.6 55 2.3 36.1
03:30 1016 30 845 24.95 10.8 51.5 55 2.3 36.1
03:35 1016 30 845 24.95 10.8 51.4 57 2.7 36.9
03:40 1016 30 845 24.95 10.7 51.3 57 2.6 36.7
03:45 1016 30 846 24.98 10.6 51 58 2.8 37
03:50 1016 30 846 24.98 10.6 51 59 2.9 37.2
03:55 1016 30 846 24.98 10.4 50.8 58 2.7 36.8
04:00 1016 30 846 24.98 10.4 50.8 58 2.5 36.4
04:05 1016 30 846 24.98 10.7 51.3 56 2.3 36.2
04:10 1016 30 846 24.98 10.9 51.6 55 2.2 36
04:15 1016 30 846 24.98 10.8 51.4 56 2.4 36.3
04:20 1017 30.03 846 24.98 10.8 51.4 56 2.4 36.3
04:25 1017 30.03 846 24.98 11.6 52.8 54 2.6 36.7
04:30 1017 30.03 846 24.98 11 51.8 57 2.9 37.3
04:35 1017 30.03 846 24.98 10.6 51.2 57 2.5 36.5
04:40 1017 30.03 846 24.98 10.6 51 58 2.6 36.8
04:45 1017 30.03 846 24.98 10.5 50.8 57 2.3 36.1
04:50 1017 30.03 846 24.98 10.4 50.7 58 2.5 36.5
04:55 1017 30.03 846 24.98 10.3 50.6 58 2.4 36.3
05:00 1017 30.03 846 24.98 10.4 50.6 58 2.4 36.3
05:05 1017 30.03 846 24.98 10.4 50.6 59 2.6 36.7
05:10 1017 30.03 846 24.98 10.2 50.4 59 2.6 36.6
05:15 1016 30 846 24.98 10.1 50.2 61 2.9 37.2
05:20 1016 30 846 24.98 10.1 50.1 61 3.1 37.5
05:25 1016 30 845 24.95 9.9 49.7 63 3.1 37.6
05:30 1016 30 846 24.98 10 50 62 3 37.5
05:35 1016 30 846 24.98 10.1 50.3 61 3.1 37.6
05:40 1016 30 846 24.98 10.3 50.6 60 3 37.4
05:45 1016 30 846 24.98 10.5 50.9 61 3.4 38.1
05:50 1016 30 846 24.98 10.5 50.9 62 3.6 38.6
05:55 1016 30 846 24.98 10.6 51.1 61 3.4 38.2
06:00 1016 30 846 24.98 11.1 51.9 59 3.5 38.4
06:05 1016 30 845 24.95 11.4 52.6 58 3.4 38.2
06:10 1016 30 846 24.98 11.9 53.4 57 3.6 38.5
06:15 1016 30 846 24.98 12.3 54.1 56 3.7 38.7
06:20 1016 30 846 24.98 12.7 54.8 56 4.2 39.6
06:25 1016 30 845 24.95 13.2 55.8 53 3.9 39.1
06:30 1016 30 845 24.95 13.8 56.8 52 4.1 39.4
06:35 1016 30 845 24.95 14 57.1 52 4.4 39.9
06:40 1016 30 845 24.95 14 57.2 52 4.4 40
06:45 1016 30 845 24.95 14.1 57.4 53 4.8 40.6
06:50 1016 30 845 24.95 14.2 57.5 52 4.7 40.4
06:55 1016 30 845 24.95 14.2 57.5 53 4.7 40.5
07:00 1016 30 845 24.95 14.3 57.7 52 4.5 40.1
07:05 1016 30 845 24.95 14.7 58.5 50 4.5 40.1
07:10 1016 30 845 24.95 15 59.1 50 4.9 40.7
07:15 1016 30 845 24.95 15.8 60.4 45 4 39.2
07:20 1016 30 845 24.95 15.9 60.6 47 4.7 40.4
07:25 1016 30 845 24.95 16.1 61 46 4.6 40.3
07:30 1016 30 845 24.95 16.1 61 46 4.7 40.4
07:35 1016 30 845 24.95 16.3 61.3 46 4.8 40.7
07:40 1016 30 845 24.95 16.9 62.4 45 5 40.9
07:45 1016 30 845 24.95 17.4 63.3 43 4.8 40.7
07:50 1016 30 845 24.95 17.1 62.8 43 4.5 40.1
07:55 1016 30 845 24.95 17.6 63.6 44 5.4 41.7
08:00 1016 30 845 24.95 17.9 64.2 42 5 41
08:05 1016 30 845 24.95 18.4 65 42 5.3 41.5
08:10 1016 30 845 24.95 18.5 65.3 40 4.9 40.9
08:15 1016 30 845 24.95 18.3 64.9 42 5.4 41.8
08:20 1016 30 845 24.95 18.4 65.2 43 5.9 42.6
08:25 1016 30 845 24.95 18.5 65.2 44 6 42.8
08:30 1016 30 845 24.95 18.6 65.4 41 5 41
08:35 1016 30 845 24.95 18.9 66 40 5 40.9
08:40 1016 30 845 24.95 19.4 66.9 33 3.1 37.5
08:45 1016 30 845 24.95 19.8 67.6 36 4.5 40.1
08:50 1016 30 845 24.95 20.4 68.6 34 4.3 39.8
08:55 1016 30 845 24.95 20.9 69.7 37 5.9 42.5
09:00 1016 30 845 24.95 20.2 68.3 37 5.3 41.6
09:05 1016 30 845 24.95 21 69.7 36 5.6 42.1
09:10 1015 29.97 845 24.95 20.9 69.6 36 5.5 41.8
09:15 1016 30 845 24.95 20.4 68.8 36 4.9 40.8
09:20 1015 29.97 845 24.95 20.3 68.6 37 5.2 41.3
09:25 1015 29.97 845 24.95 21 69.9 33 4.4 40
09:30 1015 29.97 845 24.95 21.8 71.2 34 5.3 41.5
09:35 1015 29.97 844 24.92 21.5 70.6 33 4.5 40.2
09:40 1015 29.97 844 24.92 21.3 70.3 32 4.3 39.7
09:45 1015 29.97 844 24.92 21.3 70.3 33 4.5 40.1
09:50 1015 29.97 844 24.92 20.7 69.3 32 3.4 38.1
09:55 1015 29.97 844 24.92 21.2 70.2 32 4.1 39.5
10:00 1015 29.97 844 24.92 22.2 72 31 4.3 39.8
10:05 1015 29.97 844 24.92 22.9 73.3 29 4.1 39.3
10:10 1015 29.97 844 24.92 23.2 73.8 27 3.6 38.4
10:15 1015 29.97 844 24.92 23.6 74.5 29 4.8 40.7
10:20 1015 29.97 844 24.92 23.3 73.9 32 5.7 42.2
10:25 1015 29.97 844 24.92 23 73.5 30 4.6 40.2
10:30 1015 29.97 844 24.92 23.4 74.1 26 3.2 37.7
10:35 1015 29.97 844 24.92 23.2 73.7 27 3.6 38.5
10:40 1015 29.97 844 24.92 23.5 74.3 28 4.2 39.5
10:45 1015 29.97 844 24.92 23.1 73.6 28 3.8 38.8
10:50 1015 29.97 844 24.92 23 73.3 28 3.8 38.8
10:55 1015 29.97 844 24.92 23.6 74.5 27 3.8 38.9
11:00 1015 29.97 844 24.92 23.3 73.9 27 3.7 38.6
11:05 1015 29.97 844 24.92 23.3 74 27 3.4 38.2
11:10 1015 29.97 844 24.92 24.6 76.2 25 3.5 38.3
11:15 1015 29.97 844 24.92 25.3 77.5 24 3.2 37.8
11:20 1015 29.97 844 24.92 25.3 77.5 23 2.7 36.8
11:25 1015 29.97 844 24.92 25.3 77.6 23 2.8 37
11:30 1014 29.94 844 24.92 24.9 76.8 23 2.3 36.2
11:35 1014 29.94 844 24.92 25.1 77.1 25 3.8 38.8
11:40 1014 29.94 844 24.92 24.7 76.4 25 3.5 38.4
11:45 1014 29.94 844 24.92 25.3 77.5 25 3.9 39.1
11:50 1014 29.94 843 24.89 25.9 78.6 24 4.2 39.6
11:55 1014 29.94 843 24.89 25 77 26 4.3 39.7
12:00 1014 29.94 843 24.89 26.4 79.4 23 3.7 38.7
12:05 1014 29.94 843 24.89 25.7 78.3 23 3.6 38.4
12:10 1014 29.94 843 24.89 25.9 78.6 21 2.4 36.3
12:15 1014 29.94 843 24.89 26.1 78.9 22 3.3 37.9
12:20 1014 29.94 843 24.89 25.6 78.1 23 3.3 38
12:25 1014 29.94 843 24.89 25.1 77.2 24 3.2 37.8
12:30 1014 29.94 843 24.89 24.7 76.4 25 3.6 38.6
12:35 1014 29.94 843 24.89 24.4 75.9 25 3.4 38.2
12:40 1014 29.94 843 24.89 24.3 75.8 25 3.1 37.5
12:45 1014 29.94 843 24.89 25 77 25 3.8 38.9
12:50 1013 29.91 843 24.89 25.8 78.4 23 3.6 38.4
12:55 1013 29.91 843 24.89 26.1 79 22 3.1 37.6
13:00 1013 29.91 843 24.89 26.1 78.9 23 3.6 38.5
13:05 1013 29.91 843 24.89 25.9 78.7 23 3.3 38
13:10 1013 29.91 843 24.89 25.9 78.6 24 4 39.2
13:15 1013 29.91 843 24.89 25.7 78.2 22 2.5 36.5
13:20 1013 29.91 842 24.86 25.3 77.6 23 3.1 37.5
13:25 1013 29.91 843 24.89 25.8 78.4 22 3 37.3
13:30 1013 29.91 842 24.86 25.8 78.5 22 2.9 37.3
13:35 1013 29.91 842 24.86 25.2 77.4 23 2.6 36.7
13:40 1013 29.91 842 24.86 25.5 77.9 23 3.2 37.7
13:45 1013 29.91 842 24.86 26 78.7 22 3.2 37.7
13:50 1013 29.91 842 24.86 26.1 78.9 22 3 37.3
13:55 1013 29.91 842 24.86 25.8 78.5 22 2.9 37.2
14:00 1013 29.91 842 24.86 25.8 78.5 22 3 37.4
14:05 1013 29.91 842 24.86 26.1 78.9 22 3 37.4
14:10 1013 29.91 842 24.86 26.4 79.5 22 3.3 37.9
14:15 1013 29.91 842 24.86 27 80.6 23 4.1 39.5
14:20 1013 29.91 842 24.86 27.2 80.9 21 3.6 38.4
14:25 1013 29.91 842 24.86 27.1 80.9 21 3 37.4
14:30 1013 29.91 842 24.86 26.9 80.4 22 3.9 39
14:35 1013 29.91 842 24.86 26.8 80.3 22 3.9 39.1
14:40 1013 29.91 842 24.86 26.8 80.2 22 3.3 38
14:45 1013 29.91 842 24.86 26.4 79.5 23 3.9 39
14:50 1013 29.91 842 24.86 26.6 79.9 23 4.1 39.4
14:55 1013 29.91 842 24.86 26.1 79 23 3.8 38.8
15:00 1013 29.91 842 24.86 25.8 78.4 24 3.9 39
15:05 1013 29.91 842 24.86 25.1 77.1 26 4.7 40.5
15:10 1013 29.91 842 24.86 24.6 76.4 26 3.9 39.1
15:15 1012 29.88 842 24.86 24.5 76.1 27 4.3 39.7
15:20 1013 29.91 842 24.86 24.3 75.8 26 4 39.1
15:25 1013 29.91 842 24.86 24.2 75.6 28 4.7 40.4
15:30 1013 29.91 842 24.86 23.9 75.1 30 5.4 41.7
15:35 1013 29.91 842 24.86 23.8 74.8 30 5.6 42.1
15:40 1013 29.91 842 24.86 23.8 74.8 23 1.4 34.6
15:45 1013 29.91 842 24.86 23.2 73.8 26 2.9 37.3
15:50 1013 29.91 842 24.86 22.5 72.5 25 1.6 34.8
15:55 1013 29.91 842 24.86 22.4 72.3 24 0.9 33.6
16:00 1013 29.91 842 24.86 23 73.4 22 0.3 32.5
16:05 1013 29.91 842 24.86 23.1 73.6 24 1.6 34.9
16:10 1014 29.94 843 24.89 22.9 73.2 25 2 35.6
16:15 1014 29.94 843 24.89 22.8 73 26 2.4 36.4
16:20 1014 29.94 843 24.89 22.1 71.8 28 2.8 37
16:25 1014 29.94 843 24.89 21.1 69.9 32 3.9 39.1
16:30 1014 29.94 843 24.89 20.2 68.4 34 3.9 39.1
16:35 1014 29.94 843 24.89 19.5 67.1 39 5.3 41.5
16:40 1014 29.94 843 24.89 18.7 65.7 47 7.3 45.1
16:45 1014 29.94 843 24.89 18 64.3 50 7.6 45.7
16:50 1014 29.94 843 24.89 17.5 63.6 47 6.2 43.2
16:55 1015 29.97 844 24.92 17.8 64 48 6.8 44.3
17:00 1015 29.97 844 24.92 17.7 63.9 51 7.6 45.7
17:05 1015 29.97 844 24.92 17.4 63.2 52 7.4 45.3
17:10 1015 29.97 844 24.92 17.2 62.9 48 6.3 43.3
17:15 1015 29.97 844 24.92 17.7 63.8 46 6.1 43
17:20 1015 29.97 845 24.95 17.7 63.8 49 6.9 44.3
17:25 1016 30 845 24.95 17.6 63.7 55 8.6 47.4
17:30 1016 30 845 24.95 17.5 63.6 57 8.9 48
17:35 1017 30.03 846 24.98 17.3 63.2 60 9.7 49.4
17:40 1017 30.03 846 24.98 16.3 61.3 64 9.6 49.3
17:45 1017 30.03 846 24.98 15.7 60.3 66 9.5 49.2
17:50 1017 30.03 846 24.98 15.7 60.2 63 8.8 47.8
17:55 1017 30.03 847 25.01 15.6 60.1 63 8.7 47.7
18:00 1018 30.06 847 25.01 15.3 59.6 63 8.4 47.2
18:05 1018 30.06 847 25.01 15.2 59.3 64 8.4 47.2
18:10 1018 30.06 847 25.01 15.1 59.2 65 8.6 47.5
18:15 1018 30.06 847 25.01 15.1 59.2 66 8.8 47.9
18:20 1018 30.06 847 25.01 15 59 70 9.7 49.4
18:25 1018 30.06 847 25.01 14.9 58.8 68 9.1 48.4
18:30 1018 30.06 847 25.01 14.5 58.2 73 9.7 49.5
18:35 1018 30.06 847 25.01 14 57.1 75 9.7 49.5
18:40 1018 30.06 848 25.04 14.1 57.3 72 9.1 48.3
18:45 1018 30.06 847 25.01 14.3 57.7 73 9.5 49.1
18:50 1018 30.06 848 25.04 14.3 57.8 74 9.8 49.6
18:55 1018 30.06 848 25.04 14.3 57.8 71 9.2 48.6
19:00 1018 30.06 848 25.04 14.4 57.9 71 9.1 48.5
19:05 1018 30.06 848 25.04 14.4 57.9 71 9.2 48.6
19:10 1018 30.06 848 25.04 14.3 57.8 72 9.3 48.8
19:15 1018 30.06 848 25.04 14.4 57.9 70 9.1 48.3
19:20 1018 30.06 848 25.04 14.6 58.2 67 8.5 47.3
19:25 1019 30.09 848 25.04 14.7 58.4 71 9.5 49.1
19:30 1019 30.09 848 25.04 14.6 58.2 68 8.7 47.7
19:35 1019 30.09 848 25.04 14.6 58.2 67 8.5 47.4
19:40 1019 30.09 848 25.04 14.7 58.5 66 8.5 47.3
19:45 1019 30.09 848 25.04 14.7 58.5 70 9.3 48.7
19:50 1019 30.09 848 25.04 14.6 58.3 73 9.9 49.9
19:55 1019 30.09 848 25.04 14.3 57.8 73 9.7 49.4
20:00 1019 30.09 848 25.04 14.2 57.5 74 9.7 49.4
20:05 1019 30.09 848 25.04 14 57.2 75 9.6 49.3
20:10 1019 30.09 848 25.04 13.9 56.9 76 9.7 49.5
20:15 1019 30.09 848 25.04 13.7 56.7 76 9.7 49.4
20:20 1019 30.09 848 25.04 13.6 56.5 76 9.5 49.1
20:25 1019 30.09 848 25.04 13.6 56.5 75 9.3 48.7
20:30 1019 30.09 848 25.04 13.6 56.5 76 9.6 49.2
20:35 1019 30.09 848 25.04 13.6 56.4 76 9.3 48.8
20:40 1019 30.09 848 25.04 13.5 56.2 79 9.9 49.8
20:45 1019 30.09 848 25.04 13.3 55.9 78 9.5 49.1
20:50 1019 30.09 848 25.04 13.2 55.8 78 9.6 49.2
20:55 1019 30.09 848 25.04 13.1 55.6 78 9.3 48.8
21:00 1019 30.09 848 25.04 12.9 55.3 75 8.7 47.7
21:05 1019 30.09 848 25.04 13 55.3 76 8.9 48
21:10 1019 30.09 848 25.04 13 55.4 73 8.4 47.1
21:15 1019 30.09 848 25.04 13.1 55.6 73 8.3 47
21:20 1019 30.09 848 25.04 13.2 55.7 73 8.5 47.3
21:25 1019 30.09 848 25.04 13 55.5 76 8.9 48.1
21:30 1019 30.09 848 25.04 12.8 55 77 8.9 48.1
21:35 1019 30.09 848 25.04 12.5 54.6 80 9.1 48.4
21:40 1019 30.09 848 25.04 12.3 54.1 80 8.9 48
21:45 1019 30.09 848 25.04 12.2 54 79 8.8 47.8
21:50 1019 30.09 848 25.04 12.3 54.1 78 8.6 47.5
21:55 1018 30.06 848 25.04 12.2 54 78 8.6 47.5
22:00 1018 30.06 848 25.04 12.1 53.7 79 8.5 47.3
22:05 1018 30.06 848 25.04 12 53.6 77 8.1 46.7
22:10 1019 30.09 848 25.04 12.1 53.8 76 8 46.4
22:15 1019 30.09 848 25.04 12.1 53.7 76 8.1 46.6
22:20 1019 30.09 848 25.04 12 53.6 76 7.9 46.3
22:25 1019 30.09 848 25.04 12.3 54.2 73 7.6 45.7
22:30 1019 30.09 848 25.04 12.6 54.6 70 7.4 45.2
22:35 1019 30.09 848 25.04 12.6 54.7 71 7.5 45.5
22:40 1019 30.09 848 25.04 12.6 54.7 71 7.4 45.4
22:45 1019 30.09 848 25.04 12.5 54.6 70 7.2 45
22:50 1019 30.09 848 25.04 12.5 54.5 71 7.4 45.3
22:55 1019 30.09 848 25.04 12.5 54.5 69 7 44.6
23:00 1019 30.09 848 25.04 12.6 54.7 68 6.9 44.4
23:05 1019 30.09 848 25.04 12.7 54.8 69 7.3 45.1
23:10 1019 30.09 848 25.04 12.3 54.2 71 7.2 45
23:15 1019 30.09 848 25.04 12.2 54 71 7.2 45
23:20 1019 30.09 848 25.04 12.1 53.7 72 7.2 45
23:25 1019 30.09 848 25.04 11.9 53.3 74 7.4 45.3
23:30 1019 30.09 848 25.04 11.6 52.9 75 7.3 45.1
23:35 1019 30.09 848 25.04 11.5 52.7 75 7.2 45
23:40 1019 30.09 848 25.04 11.5 52.8 75 7.2 45
23:45 1019 30.09 848 25.04 11.4 52.6 75 7.1 44.9
23:50 1019 30.09 848 25.04 11.4 52.5 74 6.9 44.5
23:55 1019 30.09 848 25.04 11.4 52.6 73 6.9 44.4
24:00 1019 30.09 848 25.04 11.4 52.6 73 6.8 44.2